createdAt,value
2019-01-05T00:01:34.215Z,30.40
2019-01-05T00:04:11.574Z,34.00
2019-01-05T00:06:39.915Z,32.58
2019-01-05T00:09:14.348Z,32.10
2019-01-05T00:11:45.936Z,36.65
2019-01-05T00:14:17.472Z,30.05
2019-01-05T00:16:49.147Z,32.88
2019-01-05T00:19:20.542Z,34.38
2019-01-05T00:21:57.941Z,33.25
2019-01-05T00:24:35.107Z,36.25
2019-01-05T00:27:20.504Z,32.83
2019-01-05T00:29:52.164Z,33.98
2019-01-05T00:32:27.513Z,35.83
2019-01-05T00:35:04.697Z,31.95
2019-01-05T00:37:35.182Z,34.33
2019-01-05T00:40:04.462Z,31.10
2019-01-05T00:42:33.013Z,30.77
2019-01-05T00:45:02.001Z,34.43
2019-01-05T00:47:31.661Z,35.17
2019-01-05T00:50:18.960Z,33.35
2019-01-05T00:53:04.053Z,30.35
2019-01-05T00:55:50.584Z,33.00
2019-01-05T00:58:22.400Z,33.42
2019-01-05T01:00:50.789Z,32.80
2019-01-05T01:03:35.485Z,34.13
2019-01-05T01:06:03.992Z,32.67
2019-01-05T01:08:41.764Z,32.10
2019-01-05T01:11:25.267Z,33.58
2019-01-05T01:14:11.356Z,31.33
2019-01-05T01:16:45.853Z,32.45
2019-01-05T01:19:14.294Z,31.90
2019-01-05T01:21:42.958Z,32.58
2019-01-05T01:24:14.301Z,29.60
2019-01-05T01:26:43.346Z,31.42
2019-01-05T01:29:27.295Z,33.80
2019-01-05T01:32:12.500Z,31.37
2019-01-05T01:34:57.919Z,29.10
2019-01-05T01:38:18.136Z,32.00
2019-01-05T01:40:52.468Z,30.72
2019-01-05T01:43:32.871Z,30.95
2019-01-05T01:46:19.395Z,32.17
2019-01-05T01:49:04.395Z,29.20
2019-01-05T01:51:50.464Z,30.70
2019-01-05T01:54:35.400Z,28.98
2019-01-05T01:57:23.996Z,33.15
2019-01-05T01:59:58.477Z,26.60
2019-01-05T02:02:30.455Z,29.92
2019-01-05T02:05:15.437Z,29.75
2019-01-05T02:07:49.944Z,28.23
2019-01-05T02:10:19.724Z,29.40
2019-01-05T02:12:54.709Z,29.45
2019-01-05T02:15:43.184Z,28.65
2019-01-05T02:18:15.324Z,29.98
2019-01-05T02:20:56.307Z,28.17
2019-01-05T02:23:40.424Z,26.85
2019-01-05T02:26:30.312Z,24.47
2019-01-05T02:29:08.341Z,23.83
2019-01-05T02:31:52.178Z,24.12
2019-01-05T02:34:46.584Z,22.82
2019-01-05T02:37:46.762Z,24.12
2019-01-05T02:40:33.700Z,19.87
2019-01-05T02:43:32.996Z,17.77
2019-01-05T02:46:16.836Z,19.73
2019-01-05T02:49:09.446Z,17.07
2019-01-05T02:51:41.600Z,16.82
2019-01-05T02:54:29.262Z,16.40
2019-01-05T02:57:22.649Z,18.52
2019-01-05T03:00:17.261Z,16.35
2019-01-05T03:03:07.285Z,14.83
2019-01-05T03:06:13.104Z,14.25
2019-01-05T03:09:18.486Z,17.50
2019-01-05T03:12:05.411Z,14.33
2019-01-05T03:14:49.439Z,14.07
2019-01-05T03:17:50.103Z,13.90
2019-01-05T03:20:55.681Z,14.28
2019-01-05T03:23:39.762Z,14.23
2019-01-05T03:26:31.751Z,13.28
2019-01-05T03:29:23.636Z,14.55
2019-01-05T03:32:18.794Z,14.63
2019-01-05T03:35:09.123Z,15.48
2019-01-05T03:38:21.977Z,14.18
2019-01-05T03:41:16.641Z,13.53
2019-01-05T03:44:16.108Z,16.27
2019-01-05T03:47:00.728Z,14.33
2019-01-05T03:49:52.320Z,14.45
2019-01-05T03:52:45.525Z,14.38
2019-01-05T03:56:04.312Z,13.93
2019-01-05T03:59:06.324Z,13.00
2019-01-05T04:02:09.524Z,11.83
2019-01-05T04:05:02.670Z,13.48
2019-01-05T04:07:37.681Z,12.93
2019-01-05T04:10:45.545Z,11.65
2019-01-05T04:13:29.571Z,11.10
2019-01-05T04:16:21.105Z,12.25
2019-01-05T04:18:56.246Z,11.33
2019-01-05T04:22:02.921Z,10.40
2019-01-05T04:25:02.133Z,10.82
2019-01-05T04:28:16.459Z,12.15
2019-01-05T04:30:51.689Z,11.90
2019-01-05T04:33:32.603Z,13.60
2019-01-05T04:36:20.963Z,12.10
2019-01-05T04:39:24.953Z,12.07
2019-01-05T04:42:26.638Z,13.93
2019-01-05T04:45:25.767Z,11.65
2019-01-05T04:48:30.731Z,11.60
2019-01-05T04:51:24.005Z,10.25
2019-01-05T04:54:02.204Z,11.28
2019-01-05T04:57:01.564Z,10.70
2019-01-05T05:00:11.147Z,10.53
2019-01-05T05:03:21.189Z,11.20
2019-01-05T05:06:22.877Z,12.63
2019-01-05T05:09:44.708Z,13.85
2019-01-05T05:12:31.209Z,12.85
2019-01-05T05:15:19.906Z,13.40
2019-01-05T05:18:01.020Z,16.40
2019-01-05T05:21:10.994Z,17.17
2019-01-05T05:24:08.003Z,16.37
2019-01-05T05:26:52.284Z,15.35
2019-01-05T05:29:42.624Z,15.32
2019-01-05T05:32:59.569Z,16.05
2019-01-05T05:35:46.561Z,16.17
2019-01-05T05:38:41.123Z,18.15
2019-01-05T05:41:37.247Z,15.68
2019-01-05T05:44:45.535Z,16.05
2019-01-05T05:47:38.697Z,16.35
2019-01-05T05:50:44.177Z,15.20
2019-01-05T05:53:34.439Z,16.07
2019-01-05T05:56:42.187Z,16.12
2019-01-05T05:59:29.159Z,15.70
2019-01-05T06:02:19.380Z,14.53
2019-01-05T06:05:10.740Z,14.53
2019-01-05T06:08:11.336Z,14.23
2019-01-05T06:10:58.124Z,13.93
2019-01-05T06:14:02.871Z,15.05
2019-01-05T06:16:58.906Z,16.17
2019-01-05T06:20:00.023Z,14.93
2019-01-05T06:23:03.591Z,15.83
2019-01-05T06:25:35.725Z,15.80
2019-01-05T06:28:33.432Z,16.87
2019-01-05T06:31:41.909Z,14.85
2019-01-05T06:34:35.059Z,16.20
2019-01-05T06:37:36.728Z,14.40
2019-01-05T06:40:21.052Z,15.28
2019-01-05T06:43:26.484Z,17.60
2019-01-05T06:46:33.223Z,13.58
2019-01-05T06:49:46.101Z,15.65
2019-01-05T06:52:50.840Z,15.68
2019-01-05T06:55:55.725Z,16.62
2019-01-05T06:59:08.729Z,13.50
2019-01-05T07:02:04.914Z,14.58
2019-01-05T07:05:10.045Z,14.07
2019-01-05T07:08:28.681Z,14.00
2019-01-05T07:11:24.687Z,10.88
2019-01-05T07:14:05.168Z,12.40
2019-01-05T07:17:08.880Z,11.48
2019-01-05T07:20:31.196Z,9.20
2019-01-05T07:23:36.413Z,9.70
2019-01-05T07:26:44.668Z,7.17
2019-01-05T07:29:53.468Z,8.23
2019-01-05T07:32:43.746Z,7.55
2019-01-05T07:35:49.217Z,5.75
2019-01-05T07:39:02.020Z,6.65
2019-01-05T07:41:50.740Z,6.50
2019-01-05T07:45:03.757Z,5.17
2019-01-05T07:48:10.436Z,4.42
2019-01-05T07:51:10.521Z,4.40
2019-01-05T07:54:18.993Z,5.50
2019-01-05T07:57:14.656Z,5.62
2019-01-05T07:59:52.534Z,4.25
2019-01-05T08:02:58.016Z,5.78
2019-01-05T08:05:47.780Z,4.12
2019-01-05T08:08:54.455Z,4.30
2019-01-05T08:12:03.767Z,5.33
2019-01-05T08:14:54.199Z,5.90
2019-01-05T08:17:57.796Z,5.35
2019-01-05T08:20:58.749Z,5.28
2019-01-05T08:24:16.287Z,6.17
2019-01-05T08:27:24.711Z,6.80
2019-01-05T08:29:59.443Z,5.90
2019-01-05T08:32:46.124Z,5.47
2019-01-05T08:35:36.092Z,6.50
2019-01-05T08:38:41.565Z,6.30
2019-01-05T08:41:43.888Z,6.17
2019-01-05T08:44:49.235Z,6.53
2019-01-05T08:47:49.688Z,6.65
2019-01-05T08:50:50.484Z,6.85
2019-01-05T08:53:46.651Z,6.55
2019-01-05T08:56:41.639Z,7.15
2019-01-05T08:59:37.810Z,6.35
2019-01-05T09:02:49.053Z,5.85
2019-01-05T09:05:33.013Z,5.65
2019-01-05T09:08:54.906Z,6.00
2019-01-05T09:11:41.357Z,5.65
2019-01-05T09:14:48.074Z,5.85
2019-01-05T09:17:44.136Z,4.92
2019-01-05T09:20:36.788Z,5.33
2019-01-05T09:23:33.919Z,6.35
2019-01-05T09:26:39.423Z,6.17
2019-01-05T09:29:26.481Z,5.92
2019-01-05T09:32:33.216Z,5.65
2019-01-05T09:35:17.045Z,7.58
2019-01-05T09:38:32.309Z,5.92
2019-01-05T09:41:54.332Z,5.08
2019-01-05T09:44:50.504Z,5.60
2019-01-05T09:48:06.048Z,6.58
2019-01-05T09:51:06.724Z,5.95
2019-01-05T09:53:59.140Z,5.55
2019-01-05T09:57:04.257Z,5.10
2019-01-05T10:00:04.393Z,5.10
2019-01-05T10:03:15.669Z,4.83
2019-01-05T10:05:53.605Z,5.80
2019-01-05T10:08:49.442Z,6.30
2019-01-05T10:11:42.584Z,5.15
2019-01-05T10:14:23.832Z,6.28
2019-01-05T10:17:13.739Z,4.47
2019-01-05T10:19:57.961Z,6.70
2019-01-05T10:23:18.374Z,4.70
2019-01-05T10:26:19.045Z,4.60
2019-01-05T10:29:16.693Z,4.92
2019-01-05T10:32:19.033Z,3.90
2019-01-05T10:35:12.125Z,4.22
2019-01-05T10:37:56.103Z,4.20
2019-01-05T10:41:02.759Z,4.75
2019-01-05T10:44:25.944Z,4.45
2019-01-05T10:47:13.141Z,4.95
2019-01-05T10:49:59.937Z,4.05
2019-01-05T10:53:21.423Z,4.37
2019-01-05T10:56:05.380Z,4.53
2019-01-05T10:59:01.210Z,4.35
2019-01-05T11:01:36.060Z,4.87
2019-01-05T11:04:22.921Z,5.65
2019-01-05T11:07:22.049Z,4.22
2019-01-05T11:10:23.716Z,6.00
2019-01-05T11:13:30.202Z,5.65
2019-01-05T11:16:48.558Z,6.08
2019-01-05T11:19:41.677Z,4.95
2019-01-05T11:22:39.027Z,5.90
2019-01-05T11:25:44.246Z,7.08
2019-01-05T11:28:46.437Z,4.95
2019-01-05T11:31:45.088Z,5.30
2019-01-05T11:34:45.691Z,5.20
2019-01-05T11:37:17.873Z,5.47
2019-01-05T11:40:23.004Z,4.30
2019-01-05T11:43:22.237Z,5.35
2019-01-05T11:46:00.254Z,5.92
2019-01-05T11:48:49.805Z,6.60
2019-01-05T11:51:27.688Z,3.70
2019-01-05T11:54:36.023Z,5.40
2019-01-05T11:57:25.677Z,5.72
2019-01-05T12:00:10.384Z,4.67
2019-01-05T12:02:59.197Z,6.45
2019-01-05T12:06:13.331Z,6.85
2019-01-05T12:09:24.145Z,6.75
2019-01-05T12:12:35.757Z,6.00
2019-01-05T12:15:22.948Z,5.87
2019-01-05T12:18:24.636Z,6.83
2019-01-05T12:21:32.409Z,6.17
2019-01-05T12:24:40.245Z,6.10
2019-01-05T12:27:34.371Z,5.35
2019-01-05T12:30:31.977Z,6.42
2019-01-05T12:33:32.647Z,7.28
2019-01-05T12:36:34.747Z,5.60
2019-01-05T12:39:41.455Z,5.67
2019-01-05T12:42:22.547Z,6.78
2019-01-05T12:45:22.018Z,6.10
2019-01-05T12:48:22.737Z,6.67
2019-01-05T12:51:20.338Z,6.15
2019-01-05T12:54:30.189Z,7.28
2019-01-05T12:57:08.086Z,5.67
2019-01-05T12:59:43.129Z,5.30
2019-01-05T13:02:24.237Z,5.30
2019-01-05T13:05:33.628Z,5.25
2019-01-05T13:08:41.750Z,6.00
2019-01-05T13:11:40.840Z,5.58
2019-01-05T13:14:40.945Z,5.37
2019-01-05T13:17:27.965Z,6.00
2019-01-05T13:20:34.505Z,6.15
2019-01-05T13:23:18.475Z,6.05
2019-01-05T13:26:05.053Z,4.20
2019-01-05T13:29:14.549Z,4.85
2019-01-05T13:32:18.304Z,5.22
2019-01-05T13:35:19.141Z,4.90
2019-01-05T13:38:31.377Z,5.05
2019-01-05T13:41:21.656Z,4.33
2019-01-05T13:44:22.612Z,5.00
2019-01-05T13:47:01.178Z,5.42
2019-01-05T13:49:40.984Z,4.05
2019-01-05T13:52:42.789Z,5.65
2019-01-05T13:55:40.502Z,4.72
2019-01-05T13:58:11.938Z,3.80
2019-01-05T14:00:52.232Z,4.30
2019-01-05T14:03:23.722Z,4.15
2019-01-05T14:06:09.881Z,3.98
2019-01-05T14:08:41.320Z,5.12
2019-01-05T14:11:15.784Z,3.90
2019-01-05T14:14:02.268Z,3.77
2019-01-05T14:16:48.851Z,4.62
2019-01-05T14:19:32.064Z,5.08
2019-01-05T14:22:12.311Z,4.40
2019-01-05T14:24:49.941Z,4.00
2019-01-05T14:27:24.433Z,4.35
2019-01-05T14:29:58.624Z,3.60
2019-01-05T14:32:27.275Z,3.55
2019-01-05T14:35:10.520Z,3.05
2019-01-05T14:37:45.263Z,3.47
2019-01-05T14:40:19.279Z,4.58
2019-01-05T14:43:04.276Z,3.75
2019-01-05T14:45:32.624Z,3.72
2019-01-05T14:48:06.715Z,3.33
2019-01-05T14:50:47.351Z,4.10
2019-01-05T14:53:27.760Z,4.50
2019-01-05T14:55:58.940Z,3.62
2019-01-05T14:58:30.224Z,3.42
2019-01-05T15:00:58.569Z,3.98
2019-01-05T15:03:43.533Z,3.90
2019-01-05T15:06:17.871Z,3.87
2019-01-05T15:08:48.877Z,4.00
2019-01-05T15:11:35.260Z,3.50
2019-01-05T15:14:09.402Z,3.65
2019-01-05T15:16:40.400Z,3.30
2019-01-05T15:19:25.433Z,3.00
2019-01-05T15:22:06.236Z,3.35
2019-01-05T15:24:52.905Z,3.60
2019-01-05T15:27:21.254Z,4.70
2019-01-05T15:29:52.328Z,4.45
2019-01-05T15:32:26.813Z,3.70
2019-01-05T15:35:07.210Z,3.10
2019-01-05T15:37:38.597Z,3.27
2019-01-05T15:40:16.155Z,3.30
2019-01-05T15:42:47.184Z,4.58
2019-01-05T15:45:24.520Z,4.33
2019-01-05T15:47:52.966Z,4.92
2019-01-05T15:50:33.258Z,4.70
2019-01-05T15:53:01.722Z,4.53
2019-01-05T15:55:35.925Z,4.10
2019-01-05T15:58:04.188Z,3.00
2019-01-05T16:00:38.752Z,3.40
2019-01-05T16:03:23.804Z,4.45
2019-01-05T16:05:58.425Z,4.20
2019-01-05T16:08:36.027Z,4.33
2019-01-05T16:11:13.497Z,3.60
2019-01-05T16:13:41.848Z,4.78
2019-01-05T16:16:12.765Z,4.95
2019-01-05T16:18:44.201Z,5.33
2019-01-05T16:21:12.756Z,5.05
2019-01-05T16:23:41.419Z,4.03
2019-01-05T16:26:09.876Z,5.28
2019-01-05T16:28:38.246Z,5.28
2019-01-05T16:31:09.336Z,5.87
2019-01-05T16:33:37.725Z,7.15
2019-01-05T16:36:08.799Z,9.08
2019-01-05T16:38:53.427Z,7.47
2019-01-05T16:41:21.971Z,7.22
2019-01-05T16:44:05.302Z,7.90
2019-01-05T16:46:39.595Z,7.03
2019-01-05T16:49:19.834Z,7.17
2019-01-05T16:51:51.127Z,6.50
2019-01-05T16:54:19.504Z,5.72
2019-01-05T16:56:56.647Z,7.20
2019-01-05T16:59:28.096Z,6.12
2019-01-05T17:01:59.525Z,6.12
2019-01-05T17:04:27.863Z,6.47
2019-01-05T17:07:08.077Z,5.37
2019-01-05T17:09:45.399Z,6.53
2019-01-05T17:12:30.335Z,6.60
2019-01-05T17:15:10.913Z,8.00
2019-01-05T17:17:51.271Z,6.28
2019-01-05T17:20:22.880Z,6.60
2019-01-05T17:22:53.692Z,7.33
2019-01-05T17:25:38.660Z,6.85
2019-01-05T17:28:22.231Z,6.87
2019-01-05T17:30:53.409Z,6.62
2019-01-05T17:33:27.774Z,5.22
2019-01-05T17:36:12.833Z,5.67
2019-01-05T17:38:41.167Z,7.08
2019-01-05T17:41:12.402Z,5.97
2019-01-05T17:43:43.836Z,5.58
2019-01-05T17:46:12.182Z,5.42
2019-01-05T17:48:43.543Z,6.25
2019-01-05T17:51:29.486Z,6.75
2019-01-05T17:54:01.068Z,6.22
2019-01-05T17:56:35.141Z,6.60
2019-01-05T17:59:15.527Z,6.25
2019-01-05T18:01:58.815Z,6.67
2019-01-05T18:04:27.522Z,6.35
2019-01-05T18:06:58.385Z,6.15
2019-01-05T18:09:29.807Z,6.10
2019-01-05T18:12:14.690Z,6.00
2019-01-05T18:14:55.080Z,6.45
2019-01-05T18:17:26.201Z,8.05
2019-01-05T18:20:06.331Z,5.53
2019-01-05T18:22:40.622Z,7.12
2019-01-05T18:25:26.847Z,7.55
2019-01-05T18:28:12.228Z,5.95
2019-01-05T18:30:57.073Z,5.53
2019-01-05T18:33:37.428Z,6.00
2019-01-05T18:36:20.904Z,6.35
2019-01-05T18:38:49.253Z,6.37
2019-01-05T18:41:32.459Z,5.70
2019-01-05T18:44:17.432Z,7.80
2019-01-05T18:46:58.014Z,6.65
2019-01-05T18:49:35.495Z,5.70
2019-01-05T18:52:12.960Z,6.85
2019-01-05T18:54:57.979Z,6.70
2019-01-05T18:57:32.311Z,5.58
2019-01-05T19:00:09.740Z,7.75
2019-01-05T19:02:41.101Z,7.00
2019-01-05T19:05:18.582Z,6.58
2019-01-05T19:07:52.809Z,7.50
2019-01-05T19:10:37.867Z,7.97
2019-01-05T19:13:18.373Z,7.87
2019-01-05T19:15:52.534Z,6.40
2019-01-05T19:18:20.956Z,7.78
2019-01-05T19:20:49.270Z,7.75
2019-01-05T19:23:20.487Z,7.87
2019-01-05T19:25:51.831Z,8.40
2019-01-05T19:28:20.210Z,8.03
2019-01-05T19:30:48.573Z,7.08
2019-01-05T19:33:25.796Z,8.30
2019-01-05T19:36:10.937Z,8.30
2019-01-05T19:38:54.415Z,7.62
2019-01-05T19:41:39.112Z,7.83
2019-01-05T19:44:19.709Z,7.72
2019-01-05T19:47:04.814Z,7.80
2019-01-05T19:49:33.175Z,8.35
2019-01-05T19:52:18.219Z,8.70
2019-01-05T19:54:46.580Z,9.40
2019-01-05T19:57:23.896Z,9.38
2019-01-05T19:59:58.127Z,8.53
2019-01-05T20:02:32.589Z,7.97
2019-01-05T20:05:00.951Z,9.33
2019-01-05T20:07:38.183Z,9.43
2019-01-05T20:10:14.795Z,10.35
2019-01-05T20:12:59.740Z,7.72
2019-01-05T20:15:36.713Z,8.60
2019-01-05T20:18:07.828Z,8.78
2019-01-05T20:20:48.225Z,9.23
2019-01-05T20:23:19.735Z,10.65
2019-01-05T20:26:04.737Z,11.28
2019-01-05T20:28:48.232Z,9.18
2019-01-05T20:31:34.503Z,9.58
2019-01-05T20:34:05.678Z,9.83
2019-01-05T20:36:51.783Z,8.73
2019-01-05T20:39:20.029Z,10.32
2019-01-05T20:42:04.814Z,9.75
2019-01-05T20:44:49.791Z,9.08
2019-01-05T20:47:21.052Z,8.90
2019-01-05T20:49:52.555Z,10.25
2019-01-05T20:52:20.923Z,9.85
2019-01-05T20:54:52.011Z,9.48
2019-01-05T20:57:32.152Z,10.03
2019-01-05T21:00:03.526Z,8.00
2019-01-05T21:02:47.152Z,9.55
2019-01-05T21:05:31.805Z,9.95
2019-01-05T21:08:09.314Z,10.60
2019-01-05T21:10:49.777Z,9.73
2019-01-05T21:13:34.832Z,9.38
2019-01-05T21:16:12.557Z,9.35
2019-01-05T21:18:49.815Z,9.65
2019-01-05T21:21:34.577Z,10.53
2019-01-05T21:24:19.675Z,10.30
2019-01-05T21:27:07.700Z,11.28
2019-01-05T21:29:42.613Z,10.43
2019-01-05T21:32:27.636Z,9.85
2019-01-05T21:35:12.140Z,9.48
2019-01-05T21:37:52.671Z,9.78
2019-01-05T21:40:21.041Z,8.85
2019-01-05T21:42:52.361Z,9.40
2019-01-05T21:45:36.030Z,10.10
2019-01-05T21:48:08.053Z,9.83
2019-01-05T21:50:55.543Z,11.22
2019-01-05T21:53:36.157Z,9.60
2019-01-05T21:56:16.435Z,9.55
2019-01-05T21:59:01.435Z,9.80
2019-01-05T22:01:32.822Z,10.18
2019-01-05T22:04:17.708Z,9.43
2019-01-05T22:06:52.045Z,8.53
2019-01-05T22:09:26.413Z,9.00
2019-01-05T22:12:03.456Z,8.35
2019-01-05T22:14:33.853Z,8.25
2019-01-05T22:17:16.968Z,8.28
2019-01-05T22:19:51.359Z,8.98
2019-01-05T22:22:36.273Z,8.15
2019-01-05T22:25:20.967Z,7.58
2019-01-05T22:28:06.024Z,6.92
2019-01-05T22:30:40.544Z,7.03
2019-01-05T22:33:25.490Z,7.92
2019-01-05T22:35:56.500Z,7.20
2019-01-05T22:38:24.877Z,6.75
2019-01-05T22:41:05.198Z,6.10
2019-01-05T22:43:33.663Z,6.87
2019-01-05T22:46:18.295Z,6.30
2019-01-05T22:48:55.784Z,7.10
2019-01-05T22:51:24.145Z,6.83
2019-01-05T22:54:01.483Z,7.70
2019-01-05T22:56:35.862Z,7.30
2019-01-05T22:59:16.398Z,7.72
2019-01-05T23:01:53.815Z,7.25
2019-01-05T23:04:29.896Z,6.42
2019-01-05T23:07:13.005Z,8.73
2019-01-05T23:09:47.542Z,8.08
2019-01-05T23:12:22.113Z,5.75
2019-01-05T23:14:59.601Z,7.45
2019-01-05T23:17:28.152Z,7.53
2019-01-05T23:19:57.647Z,6.75
2019-01-05T23:22:37.631Z,7.40
2019-01-05T23:25:09.489Z,7.45
2019-01-05T23:27:40.946Z,6.78
2019-01-05T23:30:15.386Z,6.75
2019-01-05T23:32:49.706Z,8.03
2019-01-05T23:35:21.081Z,7.33
2019-01-05T23:38:05.821Z,6.87
2019-01-05T23:40:37.151Z,7.47
2019-01-05T23:43:08.382Z,6.85
2019-01-05T23:45:40.101Z,6.55
2019-01-05T23:48:08.447Z,7.30
2019-01-05T23:50:53.059Z,7.15
2019-01-05T23:53:37.889Z,6.72
2019-01-05T23:56:24.469Z,7.08
2019-01-05T23:59:01.957Z,7.70
